createdAt,value
2023-04-09T00:01:56.693Z,33.95
2023-04-09T00:05:11.465Z,32.15
2023-04-09T00:08:24.080Z,30.75
2023-04-09T00:11:36.550Z,30.28
2023-04-09T00:14:48.626Z,33.70
2023-04-09T00:18:00.582Z,33.05
2023-04-09T00:21:12.898Z,34.90
2023-04-09T00:24:24.900Z,32.90
2023-04-09T00:27:36.863Z,34.35
2023-04-09T00:30:48.876Z,38.15
2023-04-09T00:34:01.327Z,39.13
2023-04-09T00:37:13.633Z,41.03
2023-04-09T00:40:25.535Z,39.95
2023-04-09T00:43:37.482Z,39.65
2023-04-09T00:46:49.603Z,40.78
2023-04-09T00:50:02.102Z,36.80
2023-04-09T00:53:15.641Z,37.23
2023-04-09T00:56:29.945Z,37.90
2023-04-09T00:59:42.166Z,39.23
2023-04-09T01:02:54.834Z,43.60
2023-04-09T01:06:15.111Z,42.48
2023-04-09T01:09:33.287Z,44.93
2023-04-09T01:12:51.602Z,45.70
2023-04-09T01:16:06.567Z,41.93
2023-04-09T01:19:26.381Z,42.90
2023-04-09T01:22:54.179Z,40.95
2023-04-09T01:26:15.447Z,38.93
2023-04-09T01:29:31.727Z,44.93
2023-04-09T01:32:47.443Z,47.23
2023-04-09T01:36:01.104Z,48.30
2023-04-09T01:39:14.647Z,47.00
2023-04-09T01:42:27.676Z,45.70
2023-04-09T01:45:41.077Z,43.00
2023-04-09T01:48:54.244Z,42.10
2023-04-09T01:52:06.740Z,45.58
2023-04-09T01:55:19.087Z,43.65
2023-04-09T01:58:34.418Z,44.73
2023-04-09T02:01:51.582Z,43.78
2023-04-09T02:05:06.630Z,41.53
2023-04-09T02:08:24.407Z,43.85
2023-04-09T02:11:39.262Z,45.25
2023-04-09T02:14:56.182Z,46.30
2023-04-09T02:18:08.423Z,43.95
2023-04-09T02:21:20.259Z,42.15
2023-04-09T02:24:32.311Z,42.23
2023-04-09T02:27:44.402Z,46.13
2023-04-09T02:30:56.813Z,47.18
2023-04-09T02:34:08.787Z,47.33
2023-04-09T02:37:20.992Z,44.93
2023-04-09T02:40:33.277Z,45.73
2023-04-09T02:43:45.375Z,46.88
2023-04-09T02:46:58.321Z,51.45
2023-04-09T02:50:11.908Z,51.20
2023-04-09T02:53:26.212Z,48.33
2023-04-09T02:56:38.333Z,49.55
2023-04-09T02:59:50.929Z,49.23
2023-04-09T03:03:03.364Z,54.15
2023-04-09T03:06:15.484Z,51.90
2023-04-09T03:09:27.597Z,50.80
2023-04-09T03:12:39.649Z,48.75
2023-04-09T03:15:53.654Z,48.83
2023-04-09T03:19:05.800Z,48.58
2023-04-09T03:22:18.083Z,47.43
2023-04-09T03:25:31.194Z,52.05
2023-04-09T03:28:44.182Z,52.55
2023-04-09T03:31:56.176Z,54.35
2023-04-09T03:35:08.524Z,53.65
2023-04-09T03:38:21.347Z,51.88
2023-04-09T03:41:33.503Z,53.63
2023-04-09T03:44:47.293Z,51.78
2023-04-09T03:48:01.317Z,55.13
2023-04-09T03:51:17.217Z,56.50
2023-04-09T03:54:33.283Z,59.20
2023-04-09T03:57:45.871Z,57.58
2023-04-09T04:01:00.373Z,60.43
2023-04-09T04:04:14.624Z,58.38
2023-04-09T04:07:28.912Z,54.78
2023-04-09T04:10:42.925Z,56.50
2023-04-09T04:13:56.009Z,60.05
2023-04-09T04:17:08.289Z,60.93
2023-04-09T04:20:21.233Z,65.48
2023-04-09T04:23:39.884Z,60.90
2023-04-09T04:26:54.045Z,59.78
2023-04-09T04:30:06.885Z,57.85
2023-04-09T04:33:21.062Z,56.25
2023-04-09T04:36:34.972Z,55.68
2023-04-09T04:39:47.762Z,54.83
2023-04-09T04:43:01.661Z,55.15
2023-04-09T04:46:14.418Z,55.30
2023-04-09T04:49:26.548Z,57.03
2023-04-09T04:52:39.044Z,54.13
2023-04-09T04:55:51.082Z,52.90
2023-04-09T04:59:06.386Z,51.85
2023-04-09T05:02:20.297Z,52.33
2023-04-09T05:05:37.514Z,54.03
2023-04-09T05:08:49.692Z,55.00
2023-04-09T05:12:03.192Z,51.98
2023-04-09T05:15:16.846Z,50.60
2023-04-09T05:18:29.045Z,49.00
2023-04-09T05:21:41.211Z,50.65
2023-04-09T05:24:54.061Z,50.73
2023-04-09T05:28:06.457Z,50.55
2023-04-09T05:31:19.190Z,50.48
2023-04-09T05:34:33.319Z,51.10
2023-04-09T05:37:45.779Z,48.15
2023-04-09T05:40:59.819Z,48.73
2023-04-09T05:44:11.955Z,50.15
2023-04-09T05:47:24.677Z,49.70
2023-04-09T05:50:51.451Z,51.15
2023-04-09T05:53:53.749Z,47.18
2023-04-09T05:57:06.394Z,47.30
2023-04-09T06:00:22.557Z,47.60
2023-04-09T06:03:34.999Z,47.83
2023-04-09T06:06:47.415Z,48.85
2023-04-09T06:10:00.962Z,48.15
2023-04-09T06:13:13.172Z,48.33
2023-04-09T06:16:25.306Z,46.18
2023-04-09T06:19:37.482Z,44.98
2023-04-09T06:22:49.418Z,46.98
2023-04-09T06:26:01.548Z,48.33
2023-04-09T06:29:13.568Z,43.85
2023-04-09T06:32:25.861Z,46.45
2023-04-09T06:35:38.237Z,41.48
2023-04-09T06:38:50.243Z,43.13
2023-04-09T06:42:04.742Z,45.63
2023-04-09T06:45:19.324Z,43.55
2023-04-09T06:48:31.548Z,43.43
2023-04-09T06:51:43.358Z,40.93
2023-04-09T06:54:55.404Z,42.85
2023-04-09T06:58:07.384Z,42.55
2023-04-09T07:01:20.432Z,42.33
2023-04-09T07:04:32.681Z,41.28
2023-04-09T07:07:45.087Z,38.78
2023-04-09T07:10:57.508Z,40.23
2023-04-09T07:14:09.633Z,36.88
2023-04-09T07:17:21.737Z,36.93
2023-04-09T07:20:34.533Z,37.93
2023-04-09T07:23:46.966Z,41.43
2023-04-09T07:26:59.089Z,44.50
2023-04-09T07:30:13.320Z,36.98
2023-04-09T07:33:25.266Z,36.13
2023-04-09T07:36:38.956Z,34.00
2023-04-09T07:39:51.447Z,34.43
2023-04-09T07:43:03.558Z,33.38
2023-04-09T07:46:15.628Z,28.75
2023-04-09T07:49:27.701Z,27.18
2023-04-09T07:52:39.969Z,25.33
2023-04-09T07:55:52.058Z,21.90
2023-04-09T07:59:05.243Z,22.88
2023-04-09T08:02:18.255Z,26.98
2023-04-09T08:05:30.911Z,19.83
2023-04-09T08:08:42.952Z,20.48
2023-04-09T08:11:56.045Z,20.85
2023-04-09T08:15:08.409Z,22.43
2023-04-09T08:18:23.579Z,22.05
2023-04-09T08:21:36.018Z,21.73
2023-04-09T08:24:48.170Z,51.63
2023-04-09T08:28:00.720Z,23.55
2023-04-09T08:31:12.925Z,22.65
2023-04-09T08:34:25.298Z,22.83
2023-04-09T08:37:37.705Z,19.50
2023-04-09T08:40:50.019Z,19.95
2023-04-09T08:44:03.158Z,20.78
2023-04-09T08:47:17.442Z,21.88
2023-04-09T08:50:30.089Z,21.23
2023-04-09T08:53:43.421Z,22.33
2023-04-09T08:56:56.496Z,21.93
2023-04-09T09:00:09.210Z,22.55
2023-04-09T09:03:21.652Z,23.60
2023-04-09T09:06:36.088Z,25.18
2023-04-09T09:18:52.504Z,24.38
2023-04-09T09:25:22.490Z,31.28
2023-04-09T09:28:40.612Z,23.35
2023-04-09T09:31:58.266Z,14.15
2023-04-09T09:35:13.442Z,17.00
2023-04-09T09:38:28.272Z,13.80
2023-04-09T09:41:41.361Z,17.40
2023-04-09T09:44:54.085Z,18.45
2023-04-09T09:48:06.534Z,18.30
2023-04-09T09:51:20.202Z,18.33
2023-04-09T09:54:36.574Z,19.00
2023-04-09T09:57:50.964Z,17.33
2023-04-09T10:01:04.000Z,54.80
2023-04-09T10:07:17.309Z,32.33
2023-04-09T10:10:30.191Z,23.40
2023-04-09T10:13:46.980Z,106.93
2023-04-09T10:16:59.219Z,27.98
2023-04-09T10:29:17.428Z,23.95
2023-04-09T10:32:30.828Z,22.30
2023-04-09T10:38:48.080Z,20.40
2023-04-09T10:42:02.799Z,19.23
2023-04-09T10:45:21.390Z,26.30
2023-04-09T10:48:38.938Z,20.78
2023-04-09T10:54:53.393Z,18.65
2023-04-09T10:58:13.678Z,33.35
2023-04-09T11:01:31.279Z,23.30
2023-04-09T11:04:52.634Z,20.28
2023-04-09T11:08:12.427Z,24.30
2023-04-09T11:11:24.838Z,19.35
2023-04-09T11:14:37.206Z,18.10
2023-04-09T11:26:50.934Z,14.23
2023-04-09T11:51:44.915Z,15.15
2023-04-09T12:01:04.245Z,15.83
2023-04-09T12:04:19.024Z,14.80
2023-04-09T12:07:38.055Z,15.48
2023-04-09T12:10:53.363Z,15.28
2023-04-09T12:14:09.403Z,15.58
2023-04-09T12:17:21.659Z,14.20
2023-04-09T12:20:42.629Z,14.80
2023-04-09T12:23:54.713Z,15.00
2023-04-09T12:27:06.839Z,15.15
2023-04-09T12:30:19.741Z,15.08
2023-04-09T12:33:32.472Z,16.30
2023-04-09T12:36:45.934Z,15.40
2023-04-09T12:39:58.133Z,15.43
2023-04-09T12:43:10.344Z,14.15
2023-04-09T12:46:23.852Z,14.48
2023-04-09T12:49:37.725Z,15.08
2023-04-09T12:52:50.034Z,15.35
2023-04-09T12:56:02.342Z,14.93
2023-04-09T12:59:14.450Z,31.73
2023-04-09T13:02:27.565Z,17.53
2023-04-09T13:05:39.848Z,14.98
2023-04-09T13:08:51.884Z,16.03
2023-04-09T13:12:03.892Z,14.85
2023-04-09T13:15:17.526Z,16.05
2023-04-09T13:18:29.480Z,15.65
2023-04-09T13:21:42.100Z,15.03
2023-04-09T13:24:54.184Z,14.48
2023-04-09T13:28:06.237Z,14.15
2023-04-09T13:31:19.170Z,14.50
2023-04-09T13:34:31.436Z,15.53
2023-04-09T13:37:43.557Z,14.53
2023-04-09T13:40:55.932Z,17.18
2023-04-09T13:44:08.282Z,17.30
2023-04-09T13:47:22.111Z,14.18
2023-04-09T13:50:34.558Z,13.50
2023-04-09T13:53:46.699Z,12.88
2023-04-09T13:56:59.195Z,11.93
2023-04-09T14:03:26.220Z,11.95
2023-04-09T14:06:38.273Z,11.53
2023-04-09T14:09:50.962Z,11.70
2023-04-09T14:13:04.914Z,13.33
2023-04-09T14:16:17.387Z,12.00
2023-04-09T14:19:29.441Z,12.03
2023-04-09T14:22:43.192Z,12.15
2023-04-09T14:25:55.512Z,11.58
2023-04-09T14:29:07.802Z,11.75
2023-04-09T14:32:20.016Z,13.33
2023-04-09T14:35:32.487Z,12.10
2023-04-09T14:38:44.631Z,23.70
2023-04-09T14:41:57.430Z,36.68
2023-04-09T14:45:10.405Z,15.90
2023-04-09T14:48:22.768Z,14.03
2023-04-09T14:51:35.146Z,15.15
2023-04-09T14:54:47.290Z,14.33
2023-04-09T14:57:59.775Z,15.15
2023-04-09T15:01:12.565Z,13.50
2023-04-09T15:04:24.612Z,19.38
2023-04-09T15:07:36.963Z,14.30
2023-04-09T15:10:49.039Z,15.45
2023-04-09T15:14:01.460Z,16.75
2023-04-09T15:17:13.586Z,18.73
2023-04-09T15:20:25.604Z,16.48
2023-04-09T15:23:37.780Z,14.83
2023-04-09T15:26:49.918Z,14.88
2023-04-09T15:30:01.897Z,14.30
2023-04-09T15:33:14.111Z,14.48
2023-04-09T15:42:27.477Z,14.55
2023-04-09T15:48:40.867Z,13.90
2023-04-09T15:51:54.701Z,15.58
2023-04-09T16:29:37.817Z,14.30
2023-04-09T16:32:50.944Z,14.63
2023-04-09T16:39:04.549Z,13.90
2023-04-09T16:48:32.577Z,14.23
2023-04-09T17:00:47.173Z,16.90
2023-04-09T17:10:00.596Z,15.58
2023-04-09T17:39:56.180Z,16.15
2023-04-09T17:46:09.197Z,17.05
2023-04-09T17:49:22.577Z,17.65
2023-04-09T17:55:36.246Z,16.83
2023-04-09T17:58:55.156Z,19.33
2023-04-09T18:02:11.592Z,20.80
2023-04-09T18:05:26.226Z,21.88
2023-04-09T18:08:38.984Z,19.20
2023-04-09T18:11:53.709Z,20.68
2023-04-09T18:15:06.519Z,20.65
2023-04-09T18:18:19.097Z,21.25
2023-04-09T18:21:31.483Z,20.98
2023-04-09T18:24:43.880Z,18.63
2023-04-09T18:27:56.596Z,20.43
2023-04-09T18:31:11.326Z,21.43
2023-04-09T19:16:09.374Z,21.60
2023-04-09T19:19:21.978Z,19.43
2023-04-09T19:22:33.986Z,19.45
2023-04-09T19:25:46.101Z,19.43
2023-04-09T19:28:58.309Z,21.03
2023-04-09T19:32:12.946Z,21.30
2023-04-09T19:35:25.226Z,20.85
2023-04-09T19:38:37.652Z,20.25
2023-04-09T19:41:50.512Z,20.63
2023-04-09T19:45:02.746Z,19.48
2023-04-09T19:48:15.004Z,19.65
2023-04-09T19:51:27.572Z,19.93
2023-04-09T19:54:39.942Z,19.33
2023-04-09T19:57:52.226Z,20.40
2023-04-09T20:01:04.414Z,22.28
2023-04-09T20:04:16.662Z,21.98
2023-04-09T20:07:28.891Z,21.98
2023-04-09T20:10:46.368Z,22.33
2023-04-09T20:13:58.826Z,22.38
2023-04-09T20:17:11.632Z,22.00
2023-04-09T20:20:24.082Z,22.75
2023-04-09T20:23:36.390Z,23.25
2023-04-09T20:26:48.486Z,21.60
2023-04-09T20:30:02.073Z,22.15
2023-04-09T20:33:14.124Z,20.98
2023-04-09T20:36:26.745Z,21.38
2023-04-09T20:39:38.953Z,24.45
2023-04-09T20:42:52.794Z,25.18
2023-04-09T20:46:05.481Z,25.53
2023-04-09T20:49:19.078Z,25.03
2023-04-09T20:52:32.628Z,22.83
2023-04-09T20:55:44.624Z,22.45
2023-04-09T20:58:57.608Z,22.53
2023-04-09T21:02:09.869Z,24.15
2023-04-09T21:05:23.850Z,24.55
2023-04-09T21:08:36.914Z,23.43
2023-04-09T21:11:49.162Z,24.15
2023-04-09T21:15:01.701Z,24.53
2023-04-09T21:18:14.242Z,23.68
2023-04-09T21:21:27.642Z,25.60
2023-04-09T21:24:39.421Z,26.33
2023-04-09T21:27:51.887Z,26.13
2023-04-09T21:31:04.044Z,25.08
2023-04-09T21:34:16.224Z,25.50
2023-04-09T21:37:29.190Z,23.18
2023-04-09T21:40:41.310Z,25.00
2023-04-09T21:43:53.362Z,25.80
2023-04-09T21:47:07.796Z,26.00
2023-04-09T21:50:20.709Z,25.48
2023-04-09T21:53:34.659Z,25.85
2023-04-09T21:56:46.758Z,25.83
2023-04-09T21:59:58.815Z,25.68
2023-04-09T22:03:11.342Z,24.60
2023-04-09T22:06:24.094Z,25.38
2023-04-09T22:09:36.682Z,26.80
2023-04-09T22:12:48.713Z,26.40
2023-04-09T22:16:01.421Z,26.55
2023-04-09T22:19:14.452Z,25.48
2023-04-09T22:22:26.503Z,24.75
2023-04-09T22:25:39.072Z,23.70
2023-04-09T22:28:51.168Z,26.13
2023-04-09T22:32:04.017Z,27.18
2023-04-09T22:35:18.533Z,25.60
2023-04-09T22:38:30.680Z,27.93
2023-04-09T22:41:42.816Z,28.23
2023-04-09T22:44:54.798Z,31.03
2023-04-09T22:48:07.535Z,34.50
2023-04-09T22:51:20.464Z,37.13
2023-04-09T22:54:33.191Z,39.13
2023-04-09T22:57:45.268Z,37.73
2023-04-09T23:00:57.650Z,37.60
2023-04-09T23:04:10.023Z,36.90
2023-04-09T23:07:22.279Z,37.13
2023-04-09T23:10:34.232Z,37.53
2023-04-09T23:13:46.773Z,38.85
2023-04-09T23:16:58.749Z,38.65
2023-04-09T23:20:15.249Z,38.15
2023-04-09T23:23:27.389Z,38.33
2023-04-09T23:26:40.178Z,37.28
2023-04-09T23:29:52.306Z,37.75
2023-04-09T23:33:04.377Z,36.73
2023-04-09T23:36:17.198Z,37.68
2023-04-09T23:39:29.344Z,36.50
2023-04-09T23:42:41.472Z,35.53
2023-04-09T23:45:53.724Z,34.95
2023-04-09T23:49:05.785Z,37.00
2023-04-09T23:52:17.740Z,35.73
2023-04-09T23:55:30.053Z,34.48
2023-04-09T23:58:42.264Z,37.35
